Time;durP1;ratioP1;P1;durP2;ratioP2;P2;SDS_P1;SDS_P2;PMS_P1;PMS_P2;Temp;Humidity;BMP_temperature;BMP_pressure;BME280_temperature;BME280_humidity;BME280_pressure;Samples;Min_cycle;Max_cycle;Signal;HPM_P1;HPM_P2
2023/08/29 00:00:14;;;;;;;;;;;17.40;99.90;;;;;;5081614;28;19928;-65
2023/08/29 00:02:42;;;;;;;;;;;17.40;99.90;;;;;;5089716;28;19924;-65
2023/08/29 00:05:10;;;;;;;;;;;17.50;99.90;;;;;;5074658;28;20301;-65
2023/08/29 00:07:38;;;;;;;;;;;17.40;99.90;;;;;;5074461;28;19982;-65
2023/08/29 00:10:07;;;;;;;;;;;17.40;99.90;;;;;;5074458;28;19931;-65
2023/08/29 00:12:36;;;;;;;;;;;17.30;99.90;;;;;;5075249;28;20410;-65
2023/08/29 00:15:05;;;;;;;;;;;17.30;99.90;;;;;;5074257;28;20444;-65
2023/08/29 00:17:32;;;;;;;;;;;17.20;99.90;;;;;;5074364;28;20498;-65
2023/08/29 00:20:00;;;;;;;;;;;17.20;99.90;;;;;;5074839;28;20019;-65
2023/08/29 00:22:28;;;;;;;;;;;17.30;99.90;;;;;;5073944;28;19924;-65
2023/08/29 00:24:56;;;;;;;;;;;17.20;99.90;;;;;;5074127;28;19978;-65
2023/08/29 00:27:24;;;;;;;;;;;17.10;99.90;;;;;;5074326;28;19929;-65
2023/08/29 00:29:53;;;;;;;;;;;17.10;99.90;;;;;;5080117;28;19931;-65
2023/08/29 00:32:21;;;;;;;;;;;17.10;99.90;;;;;;5093951;28;19924;-65
2023/08/29 00:34:49;;;;;;;;;;;17.00;99.90;;;;;;5080359;28;20090;-65
2023/08/29 00:37:17;;;;;;;;;;;17.10;99.90;;;;;;5078644;28;20306;-65
2023/08/29 00:39:44;;;;;;;;;;;17.00;99.90;;;;;;5074145;28;19925;-65
2023/08/29 00:42:12;;;;;;;;;;;17.10;99.90;;;;;;5074379;28;19924;-65
2023/08/29 00:44:40;;;;;;;;;;;17.20;99.90;;;;;;5073961;28;19936;-65
2023/08/29 00:47:09;;;;;;;;;;;17.10;99.90;;;;;;5080094;28;19985;-65
2023/08/29 00:49:37;;;;;;;;;;;17.20;99.90;;;;;;5073883;28;19931;-65
2023/08/29 00:52:05;;;;;;;;;;;17.00;99.90;;;;;;5073827;28;19928;-65
2023/08/29 00:54:33;;;;;;;;;;;17.10;99.90;;;;;;5073626;28;19924;-65
2023/08/29 00:57:02;;;;;;;;;;;17.10;99.90;;;;;;5073509;28;19933;-65
2023/08/29 00:59:30;;;;;;;;;;;17.30;99.90;;;;;;5076609;28;19936;-65
2023/08/29 01:01:58;;;;;;;;;;;17.20;99.90;;;;;;5084660;28;19928;-65
2023/08/29 01:04:27;;;;;;;;;;;17.20;99.90;;;;;;5091632;28;19924;-65
2023/08/29 01:06:55;;;;;;;;;;;17.20;99.90;;;;;;5080536;28;19969;-64
2023/08/29 01:09:23;;;;;;;;;;;17.10;99.90;;;;;;5077565;28;20023;-65
2023/08/29 01:11:55;;;;;;;;;;;17.10;99.90;;;;;;5076994;28;19928;-65
2023/08/29 01:14:25;;;;;;;;;;;16.90;99.90;;;;;;5073392;28;19947;-65
2023/08/29 01:17:01;;;;;;;;;;;16.80;99.90;;;;;;5072943;28;19936;-68
2023/08/29 01:19:30;;;;;;;;;;;16.80;99.90;;;;;;5080168;28;19924;-64
2023/08/29 01:22:05;;;;;;;;;;;16.90;99.90;;;;;;5082231;28;19924;-65
2023/08/29 01:24:38;;;;;;;;;;;17.00;99.90;;;;;;5081500;28;19931;-64
2023/08/29 01:27:07;;;;;;;;;;;17.00;99.90;;;;;;5081842;28;19932;-64
2023/08/29 01:29:35;;;;;;;;;;;17.20;99.90;;;;;;5076702;28;20399;-64
2023/08/29 01:32:04;;;;;;;;;;;17.10;99.90;;;;;;5092810;28;19924;-64
2023/08/29 01:34:32;;;;;;;;;;;17.00;99.90;;;;;;5079747;28;20391;-64
2023/08/29 01:37:00;;;;;;;;;;;17.00;99.90;;;;;;5073424;28;19936;-64
2023/08/29 01:39:28;;;;;;;;;;;17.00;99.90;;;;;;5072729;28;19924;-64
2023/08/29 01:41:56;;;;;;;;;;;17.10;99.90;;;;;;5072515;28;20418;-66
2023/08/29 01:44:25;;;;;;;;;;;17.00;99.90;;;;;;5073267;28;19924;-65
2023/08/29 01:46:53;;;;;;;;;;;16.90;99.90;;;;;;5072608;28;19928;-66
2023/08/29 01:49:20;;;;;;;;;;;16.80;99.90;;;;;;5079641;28;19924;-65
2023/08/29 01:51:48;;;;;;;;;;;16.80;99.90;;;;;;5072590;28;19928;-64
2023/08/29 01:54:16;;;;;;;;;;;16.90;99.90;;;;;;5072352;28;19928;-65
2023/08/29 01:56:45;;;;;;;;;;;16.80;99.90;;;;;;5082947;28;20382;-65
2023/08/29 01:59:13;;;;;;;;;;;16.70;99.90;;;;;;5080481;28;19977;-66
2023/08/29 02:01:42;;;;;;;;;;;16.60;99.90;;;;;;5090926;28;20572;-66
2023/08/29 02:04:10;;;;;;;;;;;16.50;99.90;;;;;;5082793;28;19963;-66
2023/08/29 02:06:38;;;;;;;;;;;16.60;99.90;;;;;;5089649;28;20010;-66
2023/08/29 02:09:06;;;;;;;;;;;16.50;99.90;;;;;;5089389;28;20033;-65
2023/08/29 02:11:34;;;;;;;;;;;16.30;99.90;;;;;;5082402;28;20019;-65
2023/08/29 02:14:02;;;;;;;;;;;16.30;99.90;;;;;;5087789;28;19985;-65
2023/08/29 02:16:31;;;;;;;;;;;16.50;99.90;;;;;;5084232;28;19924;-66
2023/08/29 02:19:00;;;;;;;;;;;16.40;99.90;;;;;;5084656;28;19928;-65
2023/08/29 02:21:28;;;;;;;;;;;16.30;99.90;;;;;;5087438;28;20337;-65
2023/08/29 02:23:56;;;;;;;;;;;16.30;99.90;;;;;;5088386;28;19928;-65
2023/08/29 02:26:24;;;;;;;;;;;16.40;99.90;;;;;;5088926;28;19928;-65
2023/08/29 02:28:53;;;;;;;;;;;16.40;99.90;;;;;;5089140;28;20254;-65
2023/08/29 02:31:20;;;;;;;;;;;16.40;99.90;;;;;;5083717;28;19932;-65
2023/08/29 02:33:48;;;;;;;;;;;16.40;99.90;;;;;;5082358;28;20330;-65
2023/08/29 02:36:17;;;;;;;;;;;16.40;99.90;;;;;;5087074;28;19924;-65
2023/08/29 02:38:45;;;;;;;;;;;16.30;99.90;;;;;;5088361;28;19943;-65
2023/08/29 02:41:13;;;;;;;;;;;16.30;99.90;;;;;;5089579;28;19924;-65
2023/08/29 02:43:41;;;;;;;;;;;16.30;99.90;;;;;;5082122;28;19928;-65
2023/08/29 02:46:08;;;;;;;;;;;16.50;99.90;;;;;;5088954;28;19928;-65
2023/08/29 02:48:36;;;;;;;;;;;16.40;99.90;;;;;;5088684;28;19928;-65
2023/08/29 02:51:04;;;;;;;;;;;16.50;99.90;;;;;;5084117;28;19932;-65
2023/08/29 02:53:33;;;;;;;;;;;16.50;99.90;;;;;;5088489;28;19924;-65
2023/08/29 02:56:01;;;;;;;;;;;16.40;99.90;;;;;;5087588;28;19981;-65
2023/08/29 02:58:29;;;;;;;;;;;16.30;99.90;;;;;;5083535;28;19929;-65
2023/08/29 03:00:59;;;;;;;;;;;16.30;99.90;;;;;;5087739;28;19924;-65
2023/08/29 03:03:27;;;;;;;;;;;16.50;99.90;;;;;;5080630;28;20383;-65
2023/08/29 03:05:55;;;;;;;;;;;16.70;99.90;;;;;;5083314;28;19924;-64
2023/08/29 03:08:23;;;;;;;;;;;16.60;99.90;;;;;;5084383;28;20423;-65
2023/08/29 03:10:52;;;;;;;;;;;16.60;99.90;;;;;;5084018;28;19932;-65
2023/08/29 03:13:21;;;;;;;;;;;16.40;99.90;;;;;;5086736;28;19924;-64
2023/08/29 03:15:49;;;;;;;;;;;16.30;99.90;;;;;;5087567;28;20272;-65
2023/08/29 03:18:17;;;;;;;;;;;16.10;99.90;;;;;;5086131;28;19924;-65
2023/08/29 03:20:45;;;;;;;;;;;16.00;99.90;;;;;;5081562;28;20315;-65
2023/08/29 03:23:13;;;;;;;;;;;16.10;99.90;;;;;;5083659;28;19935;-65
2023/08/29 03:25:40;;;;;;;;;;;16.00;99.90;;;;;;5087516;28;19928;-65
2023/08/29 03:28:10;;;;;;;;;;;16.00;99.90;;;;;;5085239;28;19993;-65
2023/08/29 03:30:37;;;;;;;;;;;16.00;99.90;;;;;;5088613;28;19924;-65
2023/08/29 03:33:05;;;;;;;;;;;16.00;99.90;;;;;;5086622;28;19936;-65
2023/08/29 03:35:33;;;;;;;;;;;16.10;99.90;;;;;;5089555;28;19968;-65
2023/08/29 03:38:01;;;;;;;;;;;16.10;99.90;;;;;;5093703;28;20298;-65
2023/08/29 03:40:31;;;;;;;;;;;16.20;99.90;;;;;;5092653;28;19924;-66
2023/08/29 03:42:59;;;;;;;;;;;16.00;99.90;;;;;;5091957;28;19928;-65
2023/08/29 03:45:28;;;;;;;;;;;16.20;99.90;;;;;;5090224;28;20337;-66
2023/08/29 03:47:55;;;;;;;;;;;16.20;99.90;;;;;;5091580;28;20413;-64
2023/08/29 03:50:23;;;;;;;;;;;16.40;99.90;;;;;;5090529;28;20015;-64
2023/08/29 03:52:51;;;;;;;;;;;16.50;99.90;;;;;;5093288;28;19928;-64
2023/08/29 03:55:19;;;;;;;;;;;16.50;99.90;;;;;;5089945;28;20360;-64
2023/08/29 03:57:46;;;;;;;;;;;16.50;99.90;;;;;;5091936;28;20510;-65
2023/08/29 04:00:15;;;;;;;;;;;16.50;99.90;;;;;;5090801;28;19924;-64
2023/08/29 04:02:44;;;;;;;;;;;16.60;99.90;;;;;;5084127;28;19966;-66
2023/08/29 04:05:14;;;;;;;;;;;16.50;99.90;;;;;;5091742;28;19936;-65
2023/08/29 04:07:42;;;;;;;;;;;16.50;99.90;;;;;;5090510;28;19984;-65
2023/08/29 04:10:10;;;;;;;;;;;16.40;99.90;;;;;;5089495;28;19974;-65
2023/08/29 04:12:38;;;;;;;;;;;16.30;99.90;;;;;;5092372;28;20023;-65
2023/08/29 04:15:06;;;;;;;;;;;16.30;99.90;;;;;;5090408;28;19924;-65
2023/08/29 04:17:34;;;;;;;;;;;16.30;99.90;;;;;;5086646;28;19928;-64
2023/08/29 04:20:08;;;;;;;;;;;16.30;99.90;;;;;;5085699;28;20375;-64
2023/08/29 04:22:36;;;;;;;;;;;16.20;99.90;;;;;;5080384;28;19935;-67
2023/08/29 04:25:04;;;;;;;;;;;16.30;99.90;;;;;;5083674;28;19974;-65
2023/08/29 04:27:32;;;;;;;;;;;16.20;99.90;;;;;;5078162;28;19931;-64
2023/08/29 04:30:00;;;;;;;;;;;16.00;99.90;;;;;;5078803;28;19928;-65
2023/08/29 04:32:33;;;;;;;;;;;16.00;99.90;;;;;;5082723;28;19935;-64
2023/08/29 04:35:05;;;;;;;;;;;16.30;99.90;;;;;;5080718;28;19939;-64
2023/08/29 04:37:33;;;;;;;;;;;16.30;99.90;;;;;;5080867;28;19935;-66
2023/08/29 04:40:02;;;;;;;;;;;16.40;99.90;;;;;;5078257;28;19959;-64
2023/08/29 04:42:29;;;;;;;;;;;16.50;99.90;;;;;;5077628;28;20323;-64
2023/08/29 04:44:58;;;;;;;;;;;16.50;99.90;;;;;;5080750;28;19932;-64
2023/08/29 04:47:25;;;;;;;;;;;16.60;99.90;;;;;;5083135;28;19939;-67
2023/08/29 04:49:53;;;;;;;;;;;16.60;99.90;;;;;;5078697;28;19943;-65
2023/08/29 04:52:22;;;;;;;;;;;16.40;99.90;;;;;;5080721;28;19981;-65
2023/08/29 04:54:50;;;;;;;;;;;16.40;99.90;;;;;;5081180;28;19993;-65
2023/08/29 04:57:18;;;;;;;;;;;16.30;99.90;;;;;;5080440;28;19947;-64
2023/08/29 04:59:46;;;;;;;;;;;16.30;99.90;;;;;;5076635;28;19940;-66
2023/08/29 05:02:14;;;;;;;;;;;16.40;99.90;;;;;;5080897;28;20456;-67
2023/08/29 05:04:42;;;;;;;;;;;16.40;99.90;;;;;;5080887;28;21106;-65
2023/08/29 05:07:10;;;;;;;;;;;16.50;99.90;;;;;;5080010;28;20571;-65
2023/08/29 05:09:40;;;;;;;;;;;16.40;99.90;;;;;;5078981;28;19935;-67
2023/08/29 05:12:10;;;;;;;;;;;16.50;99.90;;;;;;5081898;28;19932;-64
2023/08/29 05:14:39;;;;;;;;;;;16.60;99.90;;;;;;5080341;28;19932;-64
2023/08/29 05:17:07;;;;;;;;;;;16.60;99.90;;;;;;5080290;28;19967;-64
2023/08/29 05:19:34;;;;;;;;;;;16.60;99.90;;;;;;5077876;28;21048;-65
2023/08/29 05:22:02;;;;;;;;;;;16.60;99.90;;;;;;5078182;28;20001;-64
2023/08/29 05:24:30;;;;;;;;;;;16.60;99.90;;;;;;5080188;28;19962;-64
2023/08/29 05:26:59;;;;;;;;;;;16.60;99.90;;;;;;5081317;28;19928;-65
2023/08/29 05:29:27;;;;;;;;;;;16.70;99.90;;;;;;5076368;28;19936;-65
2023/08/29 05:31:54;;;;;;;;;;;16.80;99.90;;;;;;5079803;28;19932;-64
2023/08/29 05:34:22;;;;;;;;;;;16.90;99.90;;;;;;5080150;28;19968;-67
2023/08/29 05:36:50;;;;;;;;;;;16.70;99.90;;;;;;5079547;28;19936;-64
2023/08/29 05:39:18;;;;;;;;;;;16.80;99.90;;;;;;5077761;28;19925;-65
2023/08/29 05:41:46;;;;;;;;;;;16.80;99.90;;;;;;5079265;28;19938;-64
2023/08/29 05:44:16;;;;;;;;;;;16.70;99.90;;;;;;5080724;28;19932;-67
2023/08/29 05:46:43;;;;;;;;;;;16.60;99.90;;;;;;5079527;28;20350;-64
2023/08/29 05:49:11;;;;;;;;;;;16.60;99.90;;;;;;5076724;28;20022;-67
2023/08/29 05:51:39;;;;;;;;;;;16.50;99.90;;;;;;5078208;28;19935;-66
2023/08/29 05:54:07;;;;;;;;;;;16.30;99.90;;;;;;5077922;28;20391;-65
2023/08/29 05:56:35;;;;;;;;;;;16.30;99.90;;;;;;5080556;28;20410;-64
2023/08/29 05:59:03;;;;;;;;;;;16.10;99.90;;;;;;5080115;28;19935;-66
2023/08/29 06:01:32;;;;;;;;;;;16.00;99.90;;;;;;5078436;28;19928;-64
2023/08/29 06:04:00;;;;;;;;;;;16.00;99.90;;;;;;5079523;28;19932;-64
2023/08/29 06:06:28;;;;;;;;;;;16.00;99.90;;;;;;5076253;28;19928;-65
2023/08/29 06:08:55;;;;;;;;;;;16.00;99.90;;;;;;5073072;28;19936;-66
2023/08/29 06:11:25;;;;;;;;;;;16.20;99.90;;;;;;5100152;22;19981;-67
2023/08/29 06:13:52;;;;;;;;;;;16.20;99.90;;;;;;5026704;28;19933;-66
2023/08/29 06:16:21;;;;;;;;;;;16.00;99.90;;;;;;5024163;28;20016;-67
2023/08/29 06:18:50;;;;;;;;;;;15.90;99.90;;;;;;5028063;28;19971;-65
2023/08/29 06:21:20;;;;;;;;;;;15.90;99.90;;;;;;5027989;28;19971;-65
2023/08/29 06:23:48;;;;;;;;;;;15.90;99.90;;;;;;5017672;28;19926;-65
2023/08/29 06:26:16;;;;;;;;;;;15.80;99.90;;;;;;5010612;28;19929;-64
2023/08/29 06:28:44;;;;;;;;;;;15.80;99.90;;;;;;5011951;28;19933;-65
2023/08/29 06:31:12;;;;;;;;;;;15.80;99.90;;;;;;5012122;28;19925;-65
2023/08/29 06:33:40;;;;;;;;;;;15.80;99.90;;;;;;5012267;28;20019;-64
2023/08/29 06:36:09;;;;;;;;;;;15.80;99.90;;;;;;5012230;28;19925;-64
2023/08/29 06:38:39;;;;;;;;;;;15.90;99.90;;;;;;5011998;28;19948;-65
2023/08/29 06:41:06;;;;;;;;;;;15.90;99.90;;;;;;5011741;28;19968;-64
2023/08/29 06:43:34;;;;;;;;;;;15.90;99.90;;;;;;5012087;28;19925;-65
2023/08/29 06:46:02;;;;;;;;;;;16.00;99.90;;;;;;5012134;28;19933;-65
2023/08/29 06:48:30;;;;;;;;;;;16.00;99.90;;;;;;5011786;28;19926;-65
2023/08/29 06:50:58;;;;;;;;;;;16.00;99.90;;;;;;5011852;28;19961;-65
2023/08/29 06:53:27;;;;;;;;;;;16.00;99.90;;;;;;5011985;28;20531;-65
2023/08/29 06:55:56;;;;;;;;;;;16.00;99.90;;;;;;5004190;28;19933;-65
2023/08/29 06:58:23;;;;;;;;;;;16.10;99.90;;;;;;5011876;28;20380;-65
2023/08/29 07:00:51;;;;;;;;;;;16.20;99.90;;;;;;5011245;28;19929;-65
2023/08/29 07:03:19;;;;;;;;;;;16.20;99.90;;;;;;5011626;28;19957;-65
2023/08/29 07:05:47;;;;;;;;;;;16.20;99.90;;;;;;5011307;28;20035;-64
2023/08/29 07:08:15;;;;;;;;;;;16.30;99.90;;;;;;5011788;28;19926;-64
2023/08/29 07:10:44;;;;;;;;;;;16.30;99.90;;;;;;5011692;28;19960;-64
2023/08/29 07:13:12;;;;;;;;;;;16.30;99.90;;;;;;5011570;28;20399;-65
2023/08/29 07:15:40;;;;;;;;;;;16.30;99.90;;;;;;4994014;28;19926;-65
2023/08/29 07:18:07;;;;;;;;;;;16.30;99.90;;;;;;5011615;28;19926;-65
2023/08/29 07:20:37;;;;;;;;;;;16.40;99.90;;;;;;5011352;28;20005;-65
2023/08/29 07:23:04;;;;;;;;;;;16.50;99.90;;;;;;5011633;28;19925;-65
2023/08/29 07:25:39;;;;;;;;;;;16.50;99.90;;;;;;5011465;28;19926;-65
2023/08/29 07:28:09;;;;;;;;;;;16.50;99.90;;;;;;5011646;28;19937;-64
2023/08/29 07:30:42;;;;;;;;;;;16.60;99.90;;;;;;5010766;28;20411;-64
2023/08/29 07:33:11;;;;;;;;;;;16.70;99.90;;;;;;5011562;28;20019;-65
2023/08/29 07:35:39;;;;;;;;;;;16.80;99.90;;;;;;5011310;28;19925;-65
2023/08/29 07:38:07;;;;;;;;;;;16.80;99.90;;;;;;5011602;28;20281;-65
2023/08/29 07:40:35;;;;;;;;;;;16.90;99.90;;;;;;5011360;28;19969;-64
2023/08/29 07:43:04;;;;;;;;;;;16.90;99.90;;;;;;5011382;28;19926;-64
2023/08/29 07:45:33;;;;;;;;;;;17.00;99.90;;;;;;5011284;28;19979;-64
2023/08/29 07:48:01;;;;;;;;;;;17.10;99.90;;;;;;5011156;28;20407;-65
2023/08/29 07:50:29;;;;;;;;;;;17.20;99.90;;;;;;5011339;28;19948;-64
2023/08/29 07:52:57;;;;;;;;;;;17.20;99.90;;;;;;5003317;28;19948;-64
2023/08/29 07:55:25;;;;;;;;;;;17.40;99.90;;;;;;5010987;28;19996;-65
2023/08/29 07:57:53;;;;;;;;;;;17.50;99.90;;;;;;5011117;28;19940;-64
2023/08/29 08:00:23;;;;;;;;;;;17.50;99.90;;;;;;5010616;28;21476;-64
2023/08/29 08:02:52;;;;;;;;;;;17.60;99.90;;;;;;5010788;28;19925;-65
2023/08/29 08:05:20;;;;;;;;;;;17.60;99.90;;;;;;5010972;28;19995;-64
2023/08/29 08:07:48;;;;;;;;;;;17.70;99.90;;;;;;5011182;28;19930;-65
2023/08/29 08:10:18;;;;;;;;;;;17.70;99.90;;;;;;5011270;28;19925;-64
2023/08/29 08:12:47;;;;;;;;;;;17.90;99.90;;;;;;5010750;28;19980;-64
2023/08/29 08:15:16;;;;;;;;;;;17.90;99.90;;;;;;5011115;28;19936;-64
2023/08/29 08:17:44;;;;;;;;;;;18.10;99.90;;;;;;5014384;28;20044;-64
2023/08/29 08:20:13;;;;;;;;;;;18.20;99.90;;;;;;5014688;28;19991;-65
2023/08/29 08:22:41;;;;;;;;;;;18.30;99.90;;;;;;5014286;28;19929;-65
2023/08/29 08:25:10;;;;;;;;;;;18.50;99.90;;;;;;5014582;28;19980;-64
2023/08/29 08:27:40;;;;;;;;;;;18.60;99.90;;;;;;5014609;28;20408;-65
2023/08/29 08:30:08;;;;;;;;;;;18.70;99.90;;;;;;5014563;28;19935;-65
2023/08/29 08:32:36;;;;;;;;;;;18.80;99.90;;;;;;5014061;28;19925;-64
2023/08/29 08:35:05;;;;;;;;;;;18.90;99.90;;;;;;5014470;28;19925;-65
2023/08/29 08:37:36;;;;;;;;;;;19.00;99.90;;;;;;5014399;28;20016;-64
2023/08/29 08:40:09;;;;;;;;;;;19.20;99.90;;;;;;5006864;28;19925;-65
2023/08/29 08:42:39;;;;;;;;;;;19.30;99.90;;;;;;5014117;28;19932;-65
2023/08/29 08:45:08;;;;;;;;;;;19.50;99.90;;;;;;5014400;28;19925;-65
2023/08/29 08:47:37;;;;;;;;;;;19.70;99.90;;;;;;5014001;28;19925;-65
2023/08/29 08:50:08;;;;;;;;;;;19.90;99.90;;;;;;5014237;28;19926;-64
2023/08/29 08:52:39;;;;;;;;;;;20.10;99.90;;;;;;5013956;28;19926;-64
2023/08/29 08:55:07;;;;;;;;;;;20.40;99.90;;;;;;5008076;28;19929;-65
2023/08/29 08:57:35;;;;;;;;;;;20.50;99.90;;;;;;5014038;28;19971;-65
2023/08/29 09:00:04;;;;;;;;;;;20.50;99.90;;;;;;5005877;28;19932;-65
2023/08/29 09:02:33;;;;;;;;;;;20.50;99.90;;;;;;5013571;28;19976;-65
2023/08/29 09:05:01;;;;;;;;;;;20.50;99.90;;;;;;5013766;28;20416;-65
2023/08/29 09:07:28;;;;;;;;;;;20.60;99.90;;;;;;5013741;28;20380;-65
2023/08/29 09:10:08;;;;;;;;;;;20.70;99.90;;;;;;5013598;28;20289;-65
2023/08/29 09:12:36;;;;;;;;;;;20.80;99.90;;;;;;5012751;28;20431;-64
2023/08/29 09:15:05;;;;;;;;;;;20.70;99.90;;;;;;5005503;28;19936;-65
2023/08/29 09:17:33;;;;;;;;;;;20.70;99.90;;;;;;5009207;28;19929;-65
2023/08/29 09:20:04;;;;;;;;;;;20.70;99.90;;;;;;5013098;28;19925;-65
2023/08/29 09:22:33;;;;;;;;;;;20.70;99.90;;;;;;5013500;28;19930;-65
2023/08/29 09:25:02;;;;;;;;;;;20.90;99.90;;;;;;5013355;28;19925;-65
2023/08/29 09:27:39;;;;;;;;;;;21.10;99.90;;;;;;5013379;28;19948;-65
2023/08/29 09:30:07;;;;;;;;;;;21.20;99.90;;;;;;5013486;28;19925;-65
2023/08/29 09:32:35;;;;;;;;;;;21.20;99.90;;;;;;5013151;28;19925;-65
2023/08/29 09:35:05;;;;;;;;;;;21.20;99.90;;;;;;5012828;28;20395;-65
2023/08/29 09:37:34;;;;;;;;;;;21.20;99.90;;;;;;5013137;28;19933;-65
2023/08/29 09:40:04;;;;;;;;;;;21.20;99.90;;;;;;5013139;28;19933;-65
2023/08/29 09:42:54;;;;;;;;;;;21.30;99.90;;;;;;5012915;28;20049;-65
2023/08/29 09:45:22;;;;;;;;;;;21.40;99.90;;;;;;5013251;28;20016;-65
2023/08/29 09:47:52;;;;;;;;;;;21.60;99.90;;;;;;5012872;28;19926;-64
2023/08/29 09:50:21;;;;;;;;;;;21.60;99.90;;;;;;5012766;28;19930;-65
2023/08/29 09:52:49;;;;;;;;;;;21.40;99.90;;;;;;5012590;28;19925;-65
2023/08/29 09:55:17;;;;;;;;;;;21.40;99.90;;;;;;5013084;28;19933;-65
2023/08/29 09:57:45;;;;;;;;;;;21.30;99.90;;;;;;5012552;28;19929;-65
2023/08/29 10:00:15;;;;;;;;;;;21.10;99.90;;;;;;5012848;28;19925;-65
2023/08/29 10:02:44;;;;;;;;;;;21.10;99.90;;;;;;5012241;28;19929;-65
2023/08/29 10:05:13;;;;;;;;;;;21.10;99.90;;;;;;5012719;28;19925;-65
2023/08/29 10:07:42;;;;;;;;;;;21.10;99.90;;;;;;5012225;28;19956;-65
2023/08/29 10:10:10;;;;;;;;;;;21.10;99.90;;;;;;5012756;28;19925;-65
2023/08/29 10:12:38;;;;;;;;;;;21.10;99.90;;;;;;5012218;28;19968;-65
2023/08/29 10:15:08;;;;;;;;;;;21.10;99.90;;;;;;5012255;28;19929;-64
2023/08/29 10:17:37;;;;;;;;;;;21.00;99.90;;;;;;5012276;28;19933;-65
2023/08/29 10:20:09;;;;;;;;;;;21.10;99.90;;;;;;5012367;28;19952;-65
2023/08/29 10:22:38;;;;;;;;;;;21.40;99.90;;;;;;5012124;28;19929;-65
2023/08/29 10:25:06;;;;;;;;;;;21.70;99.90;;;;;;5012282;28;19925;-65
2023/08/29 10:27:35;;;;;;;;;;;21.90;99.90;;;;;;5012318;28;19926;-65
2023/08/29 10:30:03;;;;;;;;;;;21.90;99.90;;;;;;5012059;28;20352;-65
2023/08/29 10:32:31;;;;;;;;;;;22.00;99.90;;;;;;5012079;28;20579;-65
2023/08/29 10:35:00;;;;;;;;;;;22.00;99.90;;;;;;5012216;28;19979;-65
2023/08/29 10:37:28;;;;;;;;;;;21.80;99.90;;;;;;5012116;28;19930;-65
2023/08/29 10:40:08;;;;;;;;;;;21.70;99.90;;;;;;5011552;28;19980;-65
2023/08/29 10:42:49;;;;;;;;;;;21.50;99.90;;;;;;5011623;28;19929;-65
2023/08/29 10:45:16;;;;;;;;;;;21.10;99.90;;;;;;5004736;28;19926;-65
2023/08/29 10:47:46;;;;;;;;;;;20.90;99.90;;;;;;5012015;28;19925;-65
2023/08/29 10:50:20;;;;;;;;;;;20.90;99.90;;;;;;5012107;28;20020;-65
2023/08/29 10:52:53;;;;;;;;;;;20.80;99.90;;;;;;5011587;28;19925;-65
2023/08/29 10:55:23;;;;;;;;;;;21.00;99.90;;;;;;5012173;28;20384;-65
2023/08/29 10:57:51;;;;;;;;;;;21.60;99.90;;;;;;5011290;28;19933;-65
2023/08/29 11:00:33;;;;;;;;;;;21.90;99.90;;;;;;5011914;28;19925;-65
2023/08/29 11:03:02;;;;;;;;;;;21.70;99.90;;;;;;5011215;28;19929;-64
2023/08/29 11:05:32;;;;;;;;;;;21.50;99.90;;;;;;5011944;28;19932;-64
2023/08/29 11:08:19;;;;;;;;;;;21.00;99.90;;;;;;5011625;28;20347;-64
2023/08/29 11:11:02;;;;;;;;;;;20.40;99.90;;;;;;5011660;28;20527;-65
2023/08/29 11:13:29;;;;;;;;;;;20.10;99.90;;;;;;5004445;28;19932;-65
2023/08/29 11:16:04;;;;;;;;;;;19.90;99.90;;;;;;5009642;28;19980;-65
2023/08/29 11:18:32;;;;;;;;;;;19.60;99.90;;;;;;5011639;28;19935;-65
2023/08/29 11:21:09;;;;;;;;;;;19.40;99.90;;;;;;5011382;28;19980;-65
2023/08/29 11:23:38;;;;;;;;;;;19.20;99.90;;;;;;5011660;28;19936;-64
2023/08/29 11:26:06;;;;;;;;;;;19.20;99.90;;;;;;5011490;28;20032;-64
2023/08/29 11:28:34;;;;;;;;;;;19.00;99.90;;;;;;5011525;28;20343;-67
2023/08/29 11:31:02;;;;;;;;;;;19.00;99.90;;;;;;5011357;28;19926;-67
2023/08/29 11:33:30;;;;;;;;;;;19.00;99.90;;;;;;5011562;28;20439;-64
2023/08/29 11:35:59;;;;;;;;;;;19.10;99.90;;;;;;5011499;28;19933;-64
2023/08/29 11:38:29;;;;;;;;;;;19.00;99.90;;;;;;5011326;28;19929;-65
2023/08/29 11:40:58;;;;;;;;;;;18.90;99.90;;;;;;5011293;28;19932;-64
2023/08/29 11:43:40;;;;;;;;;;;18.90;99.90;;;;;;5011133;28;19937;-64
2023/08/29 11:46:32;;;;;;;;;;;18.80;99.90;;;;;;5011654;28;19983;-65
2023/08/29 11:49:01;;;;;;;;;;;18.80;99.90;;;;;;5011111;28;20451;-64
2023/08/29 11:51:28;;;;;;;;;;;18.70;99.90;;;;;;5014304;28;19925;-64
2023/08/29 11:53:58;;;;;;;;;;;18.60;99.90;;;;;;5015260;28;19926;-64
2023/08/29 11:56:28;;;;;;;;;;;18.50;99.90;;;;;;5015592;28;20380;-64
2023/08/29 11:59:00;;;;;;;;;;;18.40;99.90;;;;;;5015000;28;20400;-65
2023/08/29 12:01:28;;;;;;;;;;;18.30;99.90;;;;;;5013639;28;19932;-65
2023/08/29 12:03:56;;;;;;;;;;;18.30;99.90;;;;;;5014871;28;19980;-65
2023/08/29 12:06:25;;;;;;;;;;;18.40;99.90;;;;;;5015143;28;19987;-65
2023/08/29 12:08:53;;;;;;;;;;;18.40;99.90;;;;;;5014833;28;19934;-65
2023/08/29 12:11:23;;;;;;;;;;;18.40;99.90;;;;;;5022435;28;19929;-64
2023/08/29 12:13:58;;;;;;;;;;;18.30;99.90;;;;;;5015458;28;19933;-65
2023/08/29 12:16:26;;;;;;;;;;;18.20;99.90;;;;;;5007503;28;20404;-65
2023/08/29 12:19:04;;;;;;;;;;;18.30;99.90;;;;;;5014688;28;19936;-65
2023/08/29 12:21:32;;;;;;;;;;;18.20;99.90;;;;;;5008138;28;19929;-65
2023/08/29 12:24:09;;;;;;;;;;;18.10;99.90;;;;;;5014573;28;20005;-65
2023/08/29 12:26:38;;;;;;;;;;;18.10;99.90;;;;;;5014685;28;19933;-65
2023/08/29 12:29:06;;;;;;;;;;;18.00;99.90;;;;;;5014402;28;19925;-65
2023/08/29 12:31:34;;;;;;;;;;;18.00;99.90;;;;;;5007311;28;19941;-66
2023/08/29 12:34:01;;;;;;;;;;;18.00;99.90;;;;;;5014345;28;19933;-65
2023/08/29 12:36:29;;;;;;;;;;;18.00;99.90;;;;;;5014601;28;19925;-65
2023/08/29 12:38:57;;;;;;;;;;;18.10;99.90;;;;;;5014046;28;19925;-66
2023/08/29 12:41:25;;;;;;;;;;;18.10;99.90;;;;;;5014252;28;19925;-65
2023/08/29 12:43:55;;;;;;;;;;;18.20;99.90;;;;;;5014348;28;20104;-65
2023/08/29 12:46:23;;;;;;;;;;;18.30;99.90;;;;;;5014452;28;19933;-65
2023/08/29 12:48:51;;;;;;;;;;;18.20;99.90;;;;;;5013917;28;19925;-66
2023/08/29 12:51:19;;;;;;;;;;;18.30;99.90;;;;;;5013138;28;19933;-65
2023/08/29 12:53:46;;;;;;;;;;;18.30;99.90;;;;;;5014139;28;19979;-65
2023/08/29 12:56:14;;;;;;;;;;;18.30;99.90;;;;;;5014053;28;20129;-65
2023/08/29 12:58:42;;;;;;;;;;;18.30;99.90;;;;;;5013949;28;19926;-65
2023/08/29 13:01:11;;;;;;;;;;;18.30;99.90;;;;;;5013499;28;19976;-65
2023/08/29 13:03:41;;;;;;;;;;;18.30;99.90;;;;;;5013766;28;19926;-65
2023/08/29 13:06:09;;;;;;;;;;;18.30;99.90;;;;;;5013810;28;19925;-65
2023/08/29 13:08:37;;;;;;;;;;;18.40;99.90;;;;;;5013407;28;19980;-65
2023/08/29 13:11:04;;;;;;;;;;;18.40;99.90;;;;;;5013526;28;19930;-65
2023/08/29 13:13:32;;;;;;;;;;;18.50;99.90;;;;;;5013616;28;19933;-66
2023/08/29 13:16:00;;;;;;;;;;;18.60;99.90;;;;;;5013899;28;20416;-66
2023/08/29 13:18:29;;;;;;;;;;;18.70;99.90;;;;;;5005848;28;20067;-65
2023/08/29 13:20:57;;;;;;;;;;;18.80;99.90;;;;;;5013553;28;19925;-65
2023/08/29 13:23:25;;;;;;;;;;;18.90;99.90;;;;;;5013023;28;19972;-65
2023/08/29 13:25:53;;;;;;;;;;;19.00;99.90;;;;;;5013617;28;20431;-65
2023/08/29 13:28:21;;;;;;;;;;;19.20;99.90;;;;;;5013198;28;19976;-65
2023/08/29 13:30:49;;;;;;;;;;;19.30;99.90;;;;;;5013383;28;19933;-65
2023/08/29 13:33:17;;;;;;;;;;;19.40;99.90;;;;;;5013031;28;19940;-65
2023/08/29 13:35:46;;;;;;;;;;;19.30;99.90;;;;;;5013799;28;19933;-65
2023/08/29 13:38:14;;;;;;;;;;;19.30;99.90;;;;;;5012694;28;19930;-65
2023/08/29 13:40:42;;;;;;;;;;;19.40;99.90;;;;;;5013182;28;20458;-66
2023/08/29 13:43:12;;;;;;;;;;;19.40;99.90;;;;;;5013114;28;19930;-65
2023/08/29 13:45:40;;;;;;;;;;;19.50;99.90;;;;;;5013157;28;19976;-66
2023/08/29 13:48:08;;;;;;;;;;;19.50;99.90;;;;;;5012926;28;19926;-65
2023/08/29 13:50:37;;;;;;;;;;;19.60;99.90;;;;;;5012941;28;19925;-66
2023/08/29 13:53:06;;;;;;;;;;;19.60;99.90;;;;;;5012905;28;19929;-65
2023/08/29 13:55:35;;;;;;;;;;;19.70;99.90;;;;;;5012854;28;19925;-65
2023/08/29 13:58:03;;;;;;;;;;;19.70;99.90;;;;;;5012768;28;20343;-65
2023/08/29 14:00:31;;;;;;;;;;;19.60;99.90;;;;;;5012658;28;20392;-65
2023/08/29 14:02:59;;;;;;;;;;;19.60;99.90;;;;;;5012796;28;20300;-65
2023/08/29 14:05:27;;;;;;;;;;;19.50;99.90;;;;;;5012722;28;20023;-65
2023/08/29 14:07:55;;;;;;;;;;;19.60;99.90;;;;;;5012733;28;19984;-65
2023/08/29 14:10:25;;;;;;;;;;;19.60;99.90;;;;;;5012622;28;19933;-65
2023/08/29 14:12:52;;;;;;;;;;;19.50;99.90;;;;;;5011616;28;19932;-65
2023/08/29 14:15:22;;;;;;;;;;;19.30;99.90;;;;;;5011809;28;19925;-65
2023/08/29 14:17:50;;;;;;;;;;;19.30;99.90;;;;;;5012621;28;19948;-65
2023/08/29 14:20:18;;;;;;;;;;;19.40;99.90;;;;;;5012455;28;19937;-65
2023/08/29 14:22:46;;;;;;;;;;;19.40;99.90;;;;;;5012279;28;19999;-66
2023/08/29 14:25:13;;;;;;;;;;;19.50;99.90;;;;;;5012344;28;20017;-65